createdAt,value
2018-09-30T00:01:03.245Z,92.71
2018-09-30T00:04:07.481Z,93.32
2018-09-30T00:07:11.746Z,93.59
2018-09-30T00:10:16.006Z,93.58
2018-09-30T00:13:20.237Z,93.65
2018-09-30T00:16:24.460Z,93.42
2018-09-30T00:19:28.714Z,92.85
2018-09-30T00:22:32.981Z,93.02
2018-09-30T00:25:42.665Z,93.21
2018-09-30T00:28:46.920Z,93.04
2018-09-30T00:31:51.289Z,92.98
2018-09-30T00:34:55.526Z,93.08
2018-09-30T00:37:59.782Z,93.07
2018-09-30T00:41:04.024Z,93.16
2018-09-30T00:44:09.327Z,93.43
2018-09-30T00:47:13.552Z,92.39
2018-09-30T00:50:17.812Z,92.91
2018-09-30T00:53:22.061Z,93.13
2018-09-30T00:56:26.306Z,92.76
2018-09-30T00:59:30.571Z,92.76
2018-09-30T01:02:34.804Z,92.74
2018-09-30T01:05:39.068Z,92.89
2018-09-30T01:08:43.333Z,93.22
2018-09-30T01:11:47.576Z,92.06
2018-09-30T01:14:51.829Z,92.08
2018-09-30T01:17:56.089Z,92.27
2018-09-30T01:21:00.397Z,92.54
2018-09-30T01:24:04.741Z,92.67
2018-09-30T01:27:08.996Z,92.07
2018-09-30T01:30:13.292Z,92.27
2018-09-30T01:33:18.377Z,92.03
2018-09-30T01:36:22.626Z,92.64
2018-09-30T01:39:26.896Z,92.05
2018-09-30T01:42:31.149Z,92.18
2018-09-30T01:45:35.377Z,92.16
2018-09-30T01:48:39.637Z,91.71
2018-09-30T01:51:43.881Z,91.86
2018-09-30T01:54:48.154Z,91.29
2018-09-30T01:57:52.417Z,91.64
2018-09-30T02:00:56.689Z,92.29
2018-09-30T02:04:00.988Z,92.60
2018-09-30T02:07:05.211Z,92.38
2018-09-30T02:10:09.492Z,91.88
2018-09-30T02:13:13.730Z,92.09
2018-09-30T02:16:18.002Z,93.00
2018-09-30T02:19:22.240Z,92.85
2018-09-30T02:22:27.236Z,93.28
2018-09-30T02:25:31.470Z,93.53
2018-09-30T02:28:35.716Z,93.02
2018-09-30T02:31:39.919Z,93.60
2018-09-30T02:34:44.235Z,92.85
2018-09-30T02:37:48.583Z,94.41
2018-09-30T02:40:52.847Z,93.68
2018-09-30T02:43:57.097Z,94.40
2018-09-30T02:47:01.354Z,94.13
2018-09-30T02:50:05.846Z,93.70
2018-09-30T02:53:10.089Z,94.06
2018-09-30T02:56:14.320Z,94.15
2018-09-30T02:59:18.635Z,94.11
2018-09-30T03:02:22.896Z,94.53
2018-09-30T03:05:27.169Z,93.85
2018-09-30T03:08:36.718Z,94.40
2018-09-30T03:11:41.572Z,94.60
2018-09-30T03:14:45.794Z,95.17
2018-09-30T03:17:50.073Z,95.39
2018-09-30T03:20:54.310Z,95.79
2018-09-30T03:23:58.583Z,95.67
2018-09-30T03:27:02.841Z,95.95
2018-09-30T03:30:07.099Z,95.84
2018-09-30T03:33:11.336Z,95.44
2018-09-30T03:36:15.592Z,94.71
2018-09-30T03:39:19.923Z,91.97
2018-09-30T03:42:24.157Z,90.32
2018-09-30T03:45:28.412Z,89.23
2018-09-30T03:48:32.672Z,88.30
2018-09-30T03:51:37.086Z,88.20
2018-09-30T03:54:41.370Z,88.28
2018-09-30T03:57:45.592Z,87.85
2018-09-30T04:00:49.868Z,87.09
2018-09-30T04:03:54.101Z,86.48
2018-09-30T04:06:58.390Z,86.95
2018-09-30T04:10:03.753Z,86.88
2018-09-30T04:13:07.986Z,87.25
2018-09-30T04:16:12.254Z,86.88
2018-09-30T04:19:16.513Z,86.75
2018-09-30T04:22:20.782Z,86.85
2018-09-30T04:25:25.034Z,86.38
2018-09-30T04:28:29.311Z,86.11
2018-09-30T04:31:33.709Z,87.11
2018-09-30T04:34:37.983Z,87.33
2018-09-30T04:37:42.233Z,87.11
2018-09-30T04:40:46.488Z,86.81
2018-09-30T04:43:50.720Z,86.55
2018-09-30T04:46:54.978Z,87.67
2018-09-30T04:49:59.247Z,87.31
2018-09-30T04:53:03.482Z,88.15
2018-09-30T04:56:07.745Z,87.62
2018-09-30T04:59:12.038Z,88.44
2018-09-30T05:02:16.288Z,88.25
2018-09-30T05:05:20.542Z,87.95
2018-09-30T05:08:24.769Z,88.44
2018-09-30T05:11:29.035Z,87.89
2018-09-30T05:14:33.267Z,88.67
2018-09-30T05:17:37.504Z,88.80
2018-09-30T05:20:41.752Z,88.41
2018-09-30T05:23:46.055Z,88.33
2018-09-30T05:26:50.292Z,88.07
2018-09-30T05:29:55.280Z,88.51
2018-09-30T05:32:59.532Z,88.67
2018-09-30T05:36:03.819Z,87.84
2018-09-30T05:39:10.261Z,88.43
2018-09-30T05:42:14.526Z,87.91
2018-09-30T05:45:18.838Z,88.30
2018-09-30T05:48:23.102Z,88.31
2018-09-30T05:51:27.349Z,88.26
2018-09-30T05:54:31.668Z,88.12
2018-09-30T05:57:35.940Z,87.99
2018-09-30T06:00:40.195Z,88.52
2018-09-30T06:03:44.400Z,88.24
2018-09-30T06:06:48.780Z,88.07
2018-09-30T06:09:53.023Z,88.48
2018-09-30T06:12:57.288Z,88.43
2018-09-30T06:16:01.631Z,88.47
2018-09-30T06:19:05.982Z,88.89
2018-09-30T06:22:10.258Z,88.74
2018-09-30T06:25:14.512Z,88.76
2018-09-30T06:28:18.736Z,88.79
2018-09-30T06:31:23.008Z,89.27
2018-09-30T06:34:27.258Z,89.62
2018-09-30T06:37:31.557Z,89.56
2018-09-30T06:40:36.430Z,89.66
2018-09-30T06:43:40.692Z,90.76
2018-09-30T06:46:44.981Z,89.94
2018-09-30T06:49:49.325Z,89.92
2018-09-30T06:52:53.732Z,90.44
2018-09-30T06:55:57.988Z,90.10
2018-09-30T06:59:02.257Z,90.58
2018-09-30T07:02:06.576Z,90.98
2018-09-30T07:05:10.933Z,90.60
2018-09-30T07:08:15.370Z,90.47
2018-09-30T07:11:19.637Z,90.05
2018-09-30T07:14:23.920Z,91.27
2018-09-30T07:17:28.214Z,91.16
2018-09-30T07:20:32.484Z,90.70
2018-09-30T07:23:36.712Z,91.29
2018-09-30T07:26:41.857Z,91.17
2018-09-30T07:29:46.140Z,91.06
2018-09-30T07:32:50.462Z,90.79
2018-09-30T07:35:54.761Z,90.43
2018-09-30T07:38:59.054Z,91.07
2018-09-30T07:42:03.342Z,91.63
2018-09-30T07:45:07.639Z,92.40
2018-09-30T07:48:12.006Z,92.30
2018-09-30T07:51:16.276Z,93.10
2018-09-30T07:54:20.523Z,93.69
2018-09-30T07:57:24.824Z,93.49
2018-09-30T08:00:29.055Z,93.65
2018-09-30T08:03:33.385Z,93.91
2018-09-30T08:06:37.752Z,93.69
2018-09-30T08:09:45.620Z,93.33
2018-09-30T08:12:54.587Z,93.06
2018-09-30T08:15:59.049Z,92.75
2018-09-30T08:19:03.676Z,92.44
2018-09-30T08:22:08.050Z,92.56
2018-09-30T08:25:13.007Z,92.98
2018-09-30T08:28:17.282Z,93.36
2018-09-30T08:31:23.374Z,93.03
2018-09-30T08:34:27.687Z,93.11
2018-09-30T08:37:37.742Z,93.33
2018-09-30T08:40:47.149Z,91.32
2018-09-30T08:43:51.415Z,92.48
2018-09-30T08:46:56.022Z,92.05
2018-09-30T08:50:01.578Z,92.99
2018-09-30T08:53:05.985Z,92.33
2018-09-30T08:56:10.400Z,91.87
2018-09-30T08:59:14.665Z,91.37
2018-09-30T09:02:18.933Z,92.43
2018-09-30T09:05:23.373Z,91.45
2018-09-30T09:08:27.717Z,90.37
2018-09-30T09:11:32.005Z,90.94
2018-09-30T09:14:36.263Z,91.50
2018-09-30T09:17:40.533Z,90.35
2018-09-30T09:20:45.079Z,91.61
2018-09-30T09:23:49.357Z,91.61
2018-09-30T09:26:53.776Z,90.12
2018-09-30T09:29:58.046Z,89.72
2018-09-30T09:33:02.394Z,90.63
2018-09-30T09:36:06.760Z,90.05
2018-09-30T09:39:11.446Z,90.09
2018-09-30T09:42:15.701Z,91.22
2018-09-30T09:45:20.034Z,91.03
2018-09-30T09:48:24.338Z,91.72
2018-09-30T09:51:28.580Z,91.82
2018-09-30T09:54:33.828Z,91.75
2018-09-30T09:57:38.911Z,90.65
2018-09-30T10:00:44.667Z,90.79
2018-09-30T10:03:48.922Z,90.11
2018-09-30T10:06:53.216Z,90.69
2018-09-30T10:09:57.495Z,91.79
2018-09-30T10:13:01.911Z,92.72
2018-09-30T10:16:06.113Z,92.95
2018-09-30T10:19:11.245Z,93.56
2018-09-30T10:22:15.500Z,95.85
2018-09-30T10:25:19.765Z,95.71
2018-09-30T10:28:24.045Z,96.84
2018-09-30T10:31:28.337Z,97.98
2018-09-30T10:34:32.593Z,98.38
2018-09-30T10:37:36.856Z,99.04
2018-09-30T10:40:41.651Z,98.88
2018-09-30T10:43:46.145Z,99.27
2018-09-30T10:46:50.387Z,98.81
2018-09-30T10:49:54.689Z,98.25
2018-09-30T10:52:58.944Z,98.53
2018-09-30T10:56:03.209Z,98.22
2018-09-30T10:59:07.486Z,97.78
2018-09-30T11:02:11.755Z,98.02
2018-09-30T11:05:15.977Z,98.71
2018-09-30T11:08:20.250Z,98.46
2018-09-30T11:11:24.541Z,98.54
2018-09-30T11:14:28.821Z,97.28
2018-09-30T11:17:33.055Z,96.80
2018-09-30T11:20:38.305Z,97.13
2018-09-30T11:23:42.577Z,97.99
2018-09-30T11:26:46.900Z,93.83
2018-09-30T11:29:51.143Z,88.19
2018-09-30T11:32:55.425Z,87.15
2018-09-30T11:35:59.693Z,85.61
2018-09-30T11:39:04.896Z,83.31
2018-09-30T11:42:09.152Z,83.43
2018-09-30T11:45:13.601Z,82.71
2018-09-30T11:48:17.869Z,83.50
2018-09-30T11:51:22.140Z,83.61
2018-09-30T11:54:26.413Z,80.39
2018-09-30T11:57:30.690Z,80.67
2018-09-30T12:00:34.961Z,78.51
2018-09-30T12:03:39.254Z,76.06
2018-09-30T12:06:43.520Z,77.60
2018-09-30T12:09:47.816Z,77.05
2018-09-30T12:12:52.170Z,74.53
2018-09-30T12:15:56.430Z,75.29
2018-09-30T12:19:00.687Z,70.48
2018-09-30T12:22:04.940Z,67.49
2018-09-30T12:25:09.206Z,67.38
2018-09-30T12:28:13.477Z,66.19
2018-09-30T12:31:17.822Z,67.78
2018-09-30T12:34:22.090Z,66.92
2018-09-30T12:37:26.507Z,66.78
2018-09-30T12:40:30.773Z,67.90
2018-09-30T12:43:35.094Z,65.47
2018-09-30T12:46:40.299Z,64.54
2018-09-30T12:49:44.596Z,64.94
2018-09-30T12:52:48.869Z,64.44
2018-09-30T12:55:53.195Z,65.05
2018-09-30T12:58:57.480Z,68.47
2018-09-30T13:02:01.829Z,67.60
2018-09-30T13:05:06.719Z,69.07
2018-09-30T13:08:11.048Z,65.90
2018-09-30T13:11:15.313Z,65.75
2018-09-30T13:14:19.673Z,65.20
2018-09-30T13:17:23.969Z,64.66
2018-09-30T13:20:28.321Z,62.37
2018-09-30T13:23:32.644Z,62.08
2018-09-30T13:26:37.032Z,61.97
2018-09-30T13:29:41.810Z,59.87
2018-09-30T13:32:46.117Z,61.97
2018-09-30T13:35:50.460Z,60.49
2018-09-30T13:38:54.732Z,61.71
2018-09-30T13:41:59.016Z,62.01
2018-09-30T13:45:03.263Z,63.31
2018-09-30T13:48:07.512Z,65.07
2018-09-30T13:51:11.818Z,66.58
2018-09-30T13:54:17.245Z,66.37
2018-09-30T13:57:21.535Z,69.11
2018-09-30T14:00:25.844Z,67.99
2018-09-30T14:03:30.156Z,70.29
2018-09-30T14:06:34.462Z,70.87
2018-09-30T14:09:38.770Z,70.22
2018-09-30T14:12:43.109Z,72.29
2018-09-30T14:15:47.389Z,73.64
2018-09-30T14:18:52.858Z,74.04
2018-09-30T14:21:58.169Z,75.23
2018-09-30T14:25:02.554Z,74.89
2018-09-30T14:28:07.297Z,74.52
2018-09-30T14:31:11.580Z,71.48
2018-09-30T14:34:15.946Z,72.07
2018-09-30T14:37:20.221Z,73.92
2018-09-30T14:40:24.516Z,73.24
2018-09-30T14:43:28.796Z,75.76
2018-09-30T14:46:33.137Z,74.58
2018-09-30T14:49:37.419Z,74.40
2018-09-30T14:52:41.713Z,74.47
2018-09-30T14:55:45.997Z,73.53
2018-09-30T14:58:50.328Z,74.73
2018-09-30T15:01:54.612Z,74.13
2018-09-30T15:04:58.874Z,73.68
2018-09-30T15:08:03.150Z,75.42
2018-09-30T15:11:07.445Z,75.59
2018-09-30T15:14:11.744Z,75.31
2018-09-30T15:17:16.054Z,76.30
2018-09-30T15:20:20.293Z,76.25
2018-09-30T15:23:24.692Z,78.36
2018-09-30T15:26:29.014Z,77.96
2018-09-30T15:29:33.300Z,77.70
2018-09-30T15:32:37.593Z,78.10
2018-09-30T15:35:41.858Z,78.15
2018-09-30T15:38:46.239Z,79.42
2018-09-30T15:41:51.248Z,77.74
2018-09-30T15:44:55.824Z,79.26
2018-09-30T15:48:00.350Z,78.23
2018-09-30T15:51:04.705Z,78.38
2018-09-30T15:54:09.142Z,79.88
2018-09-30T15:57:13.409Z,79.45
2018-09-30T16:00:17.663Z,80.54
2018-09-30T16:03:21.925Z,80.67
2018-09-30T16:06:26.205Z,81.52
2018-09-30T16:09:30.580Z,82.52
2018-09-30T16:12:34.876Z,82.70
2018-09-30T16:15:39.161Z,83.08
2018-09-30T16:18:43.441Z,84.46
2018-09-30T16:21:47.700Z,84.95
2018-09-30T16:24:51.951Z,84.75
2018-09-30T16:27:56.196Z,85.09
2018-09-30T16:31:00.475Z,85.08
2018-09-30T16:34:04.761Z,84.93
2018-09-30T16:37:09.109Z,85.66
2018-09-30T16:40:13.381Z,86.34
2018-09-30T16:43:17.721Z,87.38
2018-09-30T16:46:22.042Z,88.39
2018-09-30T16:49:26.293Z,88.72
2018-09-30T16:52:30.581Z,89.86
2018-09-30T16:55:35.450Z,91.41
2018-09-30T16:58:39.709Z,93.25
2018-09-30T17:01:43.957Z,94.41
2018-09-30T17:04:48.268Z,95.32
2018-09-30T17:07:52.569Z,95.98
2018-09-30T17:10:56.816Z,96.40
2018-09-30T17:14:01.047Z,97.35
2018-09-30T17:17:05.329Z,97.36
2018-09-30T17:20:09.593Z,98.46
2018-09-30T17:23:13.832Z,98.52
2018-09-30T17:26:18.139Z,98.43
2018-09-30T17:29:23.161Z,99.05
2018-09-30T17:32:27.456Z,98.67
2018-09-30T17:35:31.748Z,99.54
2018-09-30T17:38:36.050Z,99.82
2018-09-30T17:41:40.337Z,100.00
2018-09-30T17:44:44.612Z,100.00
2018-09-30T17:47:51.042Z,100.00
2018-09-30T17:50:55.318Z,100.00
2018-09-30T17:53:59.581Z,100.00
2018-09-30T17:57:03.877Z,100.00
2018-09-30T18:00:08.173Z,100.00
2018-09-30T18:03:13.216Z,100.00
2018-09-30T18:06:17.485Z,100.00
2018-09-30T18:09:21.833Z,100.00
2018-09-30T18:12:26.164Z,100.00
2018-09-30T18:15:30.458Z,100.00
2018-09-30T18:18:34.706Z,100.00
2018-09-30T18:21:39.033Z,100.00
2018-09-30T18:24:43.329Z,100.00
2018-09-30T18:27:47.633Z,100.00
2018-09-30T18:30:51.957Z,100.00
2018-09-30T18:33:56.244Z,100.00
2018-09-30T18:37:00.513Z,100.00
2018-09-30T18:40:05.394Z,100.00
2018-09-30T18:43:09.748Z,100.00
2018-09-30T18:46:14.061Z,100.00
2018-09-30T18:49:18.351Z,100.00
2018-09-30T18:52:22.631Z,100.00
2018-09-30T18:55:26.929Z,100.00
2018-09-30T18:58:31.181Z,100.00
2018-09-30T19:01:35.482Z,100.00
2018-09-30T19:04:39.775Z,100.00
2018-09-30T19:07:44.082Z,100.00
2018-09-30T19:10:48.358Z,100.00
2018-09-30T19:13:52.684Z,100.00
2018-09-30T19:16:56.912Z,100.00
2018-09-30T19:20:01.198Z,100.00
2018-09-30T19:23:05.420Z,100.00
2018-09-30T19:26:09.652Z,100.00
2018-09-30T19:29:13.981Z,100.00
2018-09-30T19:32:18.240Z,100.00
2018-09-30T19:35:23.161Z,100.00
2018-09-30T19:38:27.450Z,100.00
2018-09-30T19:41:31.801Z,100.00
2018-09-30T19:44:36.063Z,100.00
2018-09-30T19:47:40.355Z,100.00
2018-09-30T19:50:44.733Z,100.00
2018-09-30T19:53:49.011Z,100.00
2018-09-30T19:56:53.272Z,100.00
2018-09-30T19:59:57.520Z,100.00
2018-09-30T20:03:01.776Z,100.00
2018-09-30T20:06:06.046Z,100.00
2018-09-30T20:09:10.579Z,100.00
2018-09-30T20:12:14.805Z,100.00
2018-09-30T20:15:19.088Z,100.00
2018-09-30T20:18:23.336Z,100.00
2018-09-30T20:21:27.626Z,100.00
2018-09-30T20:24:31.864Z,100.00
2018-09-30T20:27:36.172Z,100.00
2018-09-30T20:30:40.418Z,100.00
2018-09-30T20:33:44.690Z,100.00
2018-09-30T20:36:48.974Z,100.00
2018-09-30T20:39:53.242Z,100.00
2018-09-30T20:42:57.534Z,100.00
2018-09-30T20:46:01.780Z,100.00
2018-09-30T20:49:06.113Z,100.00
2018-09-30T20:52:10.332Z,100.00
2018-09-30T20:55:14.595Z,100.00
2018-09-30T20:58:18.902Z,100.00
2018-09-30T21:01:23.165Z,100.00
2018-09-30T21:04:27.460Z,100.00
2018-09-30T21:07:31.717Z,100.00
2018-09-30T21:10:36.034Z,100.00
2018-09-30T21:13:40.279Z,100.00
2018-09-30T21:16:44.552Z,100.00
2018-09-30T21:19:48.840Z,100.00
2018-09-30T21:22:53.088Z,100.00
2018-09-30T21:25:57.879Z,100.00
2018-09-30T21:29:02.177Z,100.00
2018-09-30T21:32:06.669Z,100.00
2018-09-30T21:35:10.930Z,100.00
2018-09-30T21:38:15.213Z,100.00
2018-09-30T21:41:19.456Z,100.00
2018-09-30T21:44:23.761Z,100.00
2018-09-30T21:47:28.004Z,100.00
2018-09-30T21:50:32.541Z,100.00
2018-09-30T21:53:36.821Z,100.00
2018-09-30T21:56:41.281Z,100.00
2018-09-30T21:59:45.857Z,100.00
2018-09-30T22:02:51.393Z,100.00
2018-09-30T22:05:55.644Z,100.00
2018-09-30T22:09:00.744Z,100.00
2018-09-30T22:12:05.273Z,100.00
2018-09-30T22:15:09.845Z,100.00
2018-09-30T22:18:14.102Z,100.00
2018-09-30T22:21:18.436Z,100.00
2018-09-30T22:24:22.712Z,100.00
2018-09-30T22:27:27.781Z,100.00
2018-09-30T22:30:32.856Z,100.00
2018-09-30T22:33:37.168Z,100.00
2018-09-30T22:36:41.424Z,100.00
2018-09-30T22:39:46.003Z,100.00
2018-09-30T22:42:50.547Z,100.00
2018-09-30T22:45:54.860Z,100.00
2018-09-30T22:48:59.141Z,100.00
2018-09-30T22:52:03.411Z,100.00
2018-09-30T22:55:07.725Z,100.00
2018-09-30T22:58:11.988Z,100.00
2018-09-30T23:01:16.253Z,100.00
2018-09-30T23:04:20.572Z,100.00
2018-09-30T23:07:24.854Z,100.00
2018-09-30T23:10:29.113Z,100.00
2018-09-30T23:13:33.384Z,100.00
2018-09-30T23:16:37.637Z,100.00
2018-09-30T23:19:41.960Z,100.00
2018-09-30T23:22:46.764Z,100.00
2018-09-30T23:25:51.046Z,100.00
2018-09-30T23:28:55.312Z,100.00
2018-09-30T23:31:59.621Z,100.00
2018-09-30T23:35:03.946Z,100.00
2018-09-30T23:38:08.234Z,100.00
2018-09-30T23:41:12.511Z,100.00
2018-09-30T23:44:16.769Z,100.00
2018-09-30T23:47:21.040Z,100.00
2018-09-30T23:50:25.322Z,100.00
2018-09-30T23:53:29.566Z,100.00
2018-09-30T23:56:33.852Z,100.00
2018-09-30T23:59:38.103Z,100.00
